sensor_id;sensor_type;location;lat;lon;timestamp;pressure;altitude;pressure_sealevel;temperature;humidity
68948;BME280;55996;49.546;7.400;2022-07-22T00:02:16;99060.50;;;19.78;95.64
68948;BME280;55996;49.546;7.400;2022-07-22T00:04:41;99046.22;;;19.66;96.24
68948;BME280;55996;49.546;7.400;2022-07-22T00:07:07;99057.59;;;19.68;96.92
68948;BME280;55996;49.546;7.400;2022-07-22T00:09:32;99051.16;;;19.58;98.11
68948;BME280;55996;49.546;7.400;2022-07-22T00:11:58;99062.56;;;19.46;99.28
68948;BME280;55996;49.546;7.400;2022-07-22T00:14:24;99055.38;;;19.33;99.39
68948;BME280;55996;49.546;7.400;2022-07-22T00:16:49;99047.63;;;19.30;99.98
68948;BME280;55996;49.546;7.400;2022-07-22T00:19:15;99060.69;;;19.33;99.49
68948;BME280;55996;49.546;7.400;2022-07-22T00:21:40;99063.25;;;19.35;98.88
68948;BME280;55996;49.546;7.400;2022-07-22T00:24:07;99058.53;;;19.26;99.43
68948;BME280;55996;49.546;7.400;2022-07-22T00:26:32;99067.03;;;19.31;99.23
68948;BME280;55996;49.546;7.400;2022-07-22T00:28:58;99061.56;;;19.34;99.83
68948;BME280;55996;49.546;7.400;2022-07-22T00:31:23;99064.66;;;19.41;98.98
68948;BME280;55996;49.546;7.400;2022-07-22T00:33:49;99045.81;;;19.31;99.21
68948;BME280;55996;49.546;7.400;2022-07-22T00:36:14;99067.13;;;19.44;98.45
68948;BME280;55996;49.546;7.400;2022-07-22T00:38:40;99065.41;;;19.43;97.72
68948;BME280;55996;49.546;7.400;2022-07-22T00:41:05;99063.72;;;19.42;96.85
68948;BME280;55996;49.546;7.400;2022-07-22T00:43:54;99060.88;;;19.30;97.54
68948;BME280;55996;49.546;7.400;2022-07-22T00:46:20;99060.72;;;19.19;97.14
68948;BME280;55996;49.546;7.400;2022-07-22T00:48:46;99052.66;;;19.06;98.24
68948;BME280;55996;49.546;7.400;2022-07-22T00:51:11;99033.81;;;18.82;98.60
68948;BME280;55996;49.546;7.400;2022-07-22T00:53:37;99066.59;;;18.95;99.26
68948;BME280;55996;49.546;7.400;2022-07-22T00:56:03;99063.09;;;18.95;99.26
68948;BME280;55996;49.546;7.400;2022-07-22T00:58:29;99059.16;;;18.86;99.37
68948;BME280;55996;49.546;7.400;2022-07-22T01:00:55;99056.06;;;18.79;100.00
68948;BME280;55996;49.546;7.400;2022-07-22T01:03:20;99059.75;;;18.77;100.00
68948;BME280;55996;49.546;7.400;2022-07-22T01:05:46;99053.03;;;18.71;99.70
68948;BME280;55996;49.546;7.400;2022-07-22T01:08:11;99054.22;;;18.65;99.73
68948;BME280;55996;49.546;7.400;2022-07-22T01:10:37;99059.53;;;18.65;100.00
68948;BME280;55996;49.546;7.400;2022-07-22T01:13:02;99059.91;;;18.74;100.00
68948;BME280;55996;49.546;7.400;2022-07-22T01:15:27;99058.97;;;18.75;98.35
68948;BME280;55996;49.546;7.400;2022-07-22T01:17:53;99060.38;;;18.80;96.78
68948;BME280;55996;49.546;7.400;2022-07-22T01:20:18;99056.44;;;18.73;97.83
68948;BME280;55996;49.546;7.400;2022-07-22T01:22:44;99059.66;;;18.78;99.23
68948;BME280;55996;49.546;7.400;2022-07-22T01:25:11;99060.13;;;18.85;98.91
68948;BME280;55996;49.546;7.400;2022-07-22T01:27:36;99066.00;;;18.76;96.57
68948;BME280;55996;49.546;7.400;2022-07-22T01:30:04;99048.88;;;18.67;97.25
68948;BME280;55996;49.546;7.400;2022-07-22T01:32:30;99057.47;;;18.70;95.66
68948;BME280;55996;49.546;7.400;2022-07-22T01:34:55;99056.69;;;18.54;97.71
68948;BME280;55996;49.546;7.400;2022-07-22T01:37:21;99054.81;;;18.56;98.04
68948;BME280;55996;49.546;7.400;2022-07-22T01:39:47;99056.13;;;18.63;98.97
68948;BME280;55996;49.546;7.400;2022-07-22T01:42:13;99073.25;;;18.72;97.75
68948;BME280;55996;49.546;7.400;2022-07-22T01:44:38;99067.88;;;18.74;96.25
68948;BME280;55996;49.546;7.400;2022-07-22T01:47:04;99065.22;;;18.74;95.29
68948;BME280;55996;49.546;7.400;2022-07-22T01:49:30;99064.66;;;18.68;96.12
68948;BME280;55996;49.546;7.400;2022-07-22T01:51:55;99058.50;;;18.68;96.72
68948;BME280;55996;49.546;7.400;2022-07-22T01:54:21;99064.09;;;18.63;96.85
68948;BME280;55996;49.546;7.400;2022-07-22T01:56:46;99069.28;;;18.65;96.86
68948;BME280;55996;49.546;7.400;2022-07-22T01:59:11;99070.13;;;18.65;96.61
68948;BME280;55996;49.546;7.400;2022-07-22T02:01:37;99058.53;;;18.37;95.96
68948;BME280;55996;49.546;7.400;2022-07-22T02:04:02;99068.78;;;18.44;96.58
68948;BME280;55996;49.546;7.400;2022-07-22T02:06:28;99063.56;;;18.42;97.21
68948;BME280;55996;49.546;7.400;2022-07-22T02:08:56;99055.91;;;18.37;97.78
68948;BME280;55996;49.546;7.400;2022-07-22T02:11:21;99075.19;;;18.39;97.61
68948;BME280;55996;49.546;7.400;2022-07-22T02:13:46;99047.91;;;18.23;96.16
68948;BME280;55996;49.546;7.400;2022-07-22T02:16:12;99053.00;;;18.12;98.32
68948;BME280;55996;49.546;7.400;2022-07-22T02:18:37;99044.00;;;18.00;99.60
68948;BME280;55996;49.546;7.400;2022-07-22T02:21:03;99061.88;;;18.11;98.84
68948;BME280;55996;49.546;7.400;2022-07-22T02:23:28;99058.47;;;18.09;97.48
68948;BME280;55996;49.546;7.400;2022-07-22T02:25:54;99055.91;;;18.07;96.92
68948;BME280;55996;49.546;7.400;2022-07-22T02:28:19;99057.97;;;18.02;98.03
68948;BME280;55996;49.546;7.400;2022-07-22T02:30:45;99063.16;;;18.03;98.19
68948;BME280;55996;49.546;7.400;2022-07-22T02:33:10;99060.34;;;18.06;98.79
68948;BME280;55996;49.546;7.400;2022-07-22T02:35:36;99060.44;;;18.05;99.52
68948;BME280;55996;49.546;7.400;2022-07-22T02:38:01;99060.13;;;17.95;98.96
68948;BME280;55996;49.546;7.400;2022-07-22T02:40:27;99063.19;;;17.87;98.12
68948;BME280;55996;49.546;7.400;2022-07-22T02:42:52;99048.25;;;17.86;98.89
68948;BME280;55996;49.546;7.400;2022-07-22T02:45:18;99051.94;;;18.00;96.49
68948;BME280;55996;49.546;7.400;2022-07-22T02:47:52;99051.06;;;17.99;96.97
68948;BME280;55996;49.546;7.400;2022-07-22T02:50:18;99051.63;;;18.04;97.51
68948;BME280;55996;49.546;7.400;2022-07-22T02:52:43;99048.06;;;18.05;98.20
68948;BME280;55996;49.546;7.400;2022-07-22T02:55:09;99049.84;;;18.05;97.52
68948;BME280;55996;49.546;7.400;2022-07-22T02:57:35;99050.97;;;18.01;98.25
68948;BME280;55996;49.546;7.400;2022-07-22T03:00:00;99048.81;;;17.91;97.93
68948;BME280;55996;49.546;7.400;2022-07-22T03:02:26;99043.63;;;17.90;98.08
68948;BME280;55996;49.546;7.400;2022-07-22T03:04:51;99048.50;;;17.98;97.07
68948;BME280;55996;49.546;7.400;2022-07-22T03:07:17;99045.19;;;17.94;96.72
68948;BME280;55996;49.546;7.400;2022-07-22T03:09:42;99040.31;;;17.86;97.87
68948;BME280;55996;49.546;7.400;2022-07-22T03:12:08;99028.28;;;17.81;98.13
68948;BME280;55996;49.546;7.400;2022-07-22T03:14:34;99032.53;;;17.83;98.84
68948;BME280;55996;49.546;7.400;2022-07-22T03:16:59;99054.72;;;17.81;98.43
68948;BME280;55996;49.546;7.400;2022-07-22T03:19:25;99056.19;;;17.70;96.87
68948;BME280;55996;49.546;7.400;2022-07-22T03:21:50;99053.31;;;17.59;98.22
68948;BME280;55996;49.546;7.400;2022-07-22T03:24:15;99074.88;;;17.67;99.29
68948;BME280;55996;49.546;7.400;2022-07-22T03:26:41;99077.78;;;17.63;97.92
68948;BME280;55996;49.546;7.400;2022-07-22T03:29:07;99071.81;;;17.59;98.20
68948;BME280;55996;49.546;7.400;2022-07-22T03:31:33;99066.94;;;17.67;98.14
68948;BME280;55996;49.546;7.400;2022-07-22T03:33:58;99068.81;;;17.49;100.00
68948;BME280;55996;49.546;7.400;2022-07-22T03:36:26;99066.53;;;17.59;97.72
68948;BME280;55996;49.546;7.400;2022-07-22T03:38:52;99065.66;;;17.58;98.42
68948;BME280;55996;49.546;7.400;2022-07-22T03:41:18;99072.66;;;17.75;98.82
68948;BME280;55996;49.546;7.400;2022-07-22T03:43:43;99061.75;;;17.66;98.71
68948;BME280;55996;49.546;7.400;2022-07-22T03:46:09;99074.81;;;17.69;97.87
68948;BME280;55996;49.546;7.400;2022-07-22T03:48:34;99067.03;;;17.66;98.38
68948;BME280;55996;49.546;7.400;2022-07-22T03:51:00;99065.59;;;17.60;99.30
68948;BME280;55996;49.546;7.400;2022-07-22T03:53:25;99066.34;;;17.62;98.68
68948;BME280;55996;49.546;7.400;2022-07-22T03:55:50;99068.06;;;17.63;98.38
68948;BME280;55996;49.546;7.400;2022-07-22T03:58:17;99062.59;;;17.66;98.20
68948;BME280;55996;49.546;7.400;2022-07-22T04:00:43;99066.09;;;17.67;98.56
68948;BME280;55996;49.546;7.400;2022-07-22T04:03:09;99064.47;;;17.64;97.19
68948;BME280;55996;49.546;7.400;2022-07-22T04:05:34;99052.88;;;17.51;98.07
68948;BME280;55996;49.546;7.400;2022-07-22T04:08:00;99045.63;;;17.54;98.83
68948;BME280;55996;49.546;7.400;2022-07-22T04:10:25;99039.06;;;17.46;99.05
68948;BME280;55996;49.546;7.400;2022-07-22T04:12:50;99047.09;;;17.60;98.87
68948;BME280;55996;49.546;7.400;2022-07-22T04:15:16;99041.19;;;17.55;98.05
68948;BME280;55996;49.546;7.400;2022-07-22T04:17:41;99041.03;;;17.58;98.49
68948;BME280;55996;49.546;7.400;2022-07-22T04:20:07;99039.75;;;17.65;97.21
68948;BME280;55996;49.546;7.400;2022-07-22T04:22:33;99041.09;;;17.72;97.18
68948;BME280;55996;49.546;7.400;2022-07-22T04:24:58;99042.38;;;17.81;97.62
68948;BME280;55996;49.546;7.400;2022-07-22T04:27:24;99051.91;;;17.84;97.57
68948;BME280;55996;49.546;7.400;2022-07-22T04:29:49;99043.41;;;17.79;98.41
68948;BME280;55996;49.546;7.400;2022-07-22T04:32:15;99041.50;;;17.81;98.51
68948;BME280;55996;49.546;7.400;2022-07-22T04:34:40;99040.31;;;17.86;97.87
68948;BME280;55996;49.546;7.400;2022-07-22T04:37:07;99034.78;;;17.75;97.08
68948;BME280;55996;49.546;7.400;2022-07-22T04:39:32;99053.78;;;17.82;96.78
68948;BME280;55996;49.546;7.400;2022-07-22T04:41:58;99055.88;;;17.91;97.30
68948;BME280;55996;49.546;7.400;2022-07-22T04:44:23;99045.25;;;17.93;97.35
68948;BME280;55996;49.546;7.400;2022-07-22T04:46:49;99045.25;;;17.93;97.47
68948;BME280;55996;49.546;7.400;2022-07-22T04:49:14;99049.09;;;17.87;97.01
68948;BME280;55996;49.546;7.400;2022-07-22T04:51:40;99048.50;;;17.98;97.87
68948;BME280;55996;49.546;7.400;2022-07-22T04:54:05;99037.25;;;17.94;98.06
68948;BME280;55996;49.546;7.400;2022-07-22T04:56:31;99035.38;;;17.96;97.77
68948;BME280;55996;49.546;7.400;2022-07-22T04:58:56;99044.00;;;18.14;97.28
68948;BME280;55996;49.546;7.400;2022-07-22T05:01:22;99035.44;;;18.25;97.14
68948;BME280;55996;49.546;7.400;2022-07-22T05:03:47;99037.63;;;18.33;97.10
68948;BME280;55996;49.546;7.400;2022-07-22T05:06:13;99040.53;;;18.59;96.99
68948;BME280;55996;49.546;7.400;2022-07-22T05:08:39;99035.72;;;18.80;96.66
68948;BME280;55996;49.546;7.400;2022-07-22T05:11:04;99016.78;;;18.86;96.80
68948;BME280;55996;49.546;7.400;2022-07-22T05:13:30;99041.00;;;19.23;96.01
68948;BME280;55996;49.546;7.400;2022-07-22T05:15:55;99033.34;;;19.33;95.03
68948;BME280;55996;49.546;7.400;2022-07-22T05:18:20;99022.59;;;19.49;94.50
68948;BME280;55996;49.546;7.400;2022-07-22T05:20:46;99020.09;;;19.60;94.40
68948;BME280;55996;49.546;7.400;2022-07-22T05:23:11;99028.56;;;19.80;93.61
68948;BME280;55996;49.546;7.400;2022-07-22T05:25:37;99024.72;;;19.98;92.47
68948;BME280;55996;49.546;7.400;2022-07-22T05:28:03;99034.63;;;20.22;92.80
68948;BME280;55996;49.546;7.400;2022-07-22T05:30:29;99021.69;;;20.43;91.39
68948;BME280;55996;49.546;7.400;2022-07-22T05:32:54;99015.00;;;20.63;89.14
68948;BME280;55996;49.546;7.400;2022-07-22T05:35:20;99029.34;;;21.00;88.09
68948;BME280;55996;49.546;7.400;2022-07-22T05:37:46;99031.09;;;21.38;87.23
68948;BME280;55996;49.546;7.400;2022-07-22T05:40:12;99030.56;;;21.70;84.08
68948;BME280;55996;49.546;7.400;2022-07-22T05:42:38;99022.22;;;21.99;81.96
68948;BME280;55996;49.546;7.400;2022-07-22T05:45:03;99032.66;;;22.37;80.33
68948;BME280;55996;49.546;7.400;2022-07-22T05:47:29;99023.25;;;22.67;79.63
68948;BME280;55996;49.546;7.400;2022-07-22T05:49:55;99017.81;;;22.92;76.79
68948;BME280;55996;49.546;7.400;2022-07-22T05:52:20;99005.69;;;23.10;73.93
68948;BME280;55996;49.546;7.400;2022-07-22T05:54:46;99014.19;;;23.27;73.87
68948;BME280;55996;49.546;7.400;2022-07-22T05:57:11;99014.06;;;23.40;72.89
68948;BME280;55996;49.546;7.400;2022-07-22T05:59:37;99008.59;;;23.41;70.71
68948;BME280;55996;49.546;7.400;2022-07-22T06:02:03;99021.69;;;23.33;71.38
68948;BME280;55996;49.546;7.400;2022-07-22T06:04:28;99020.88;;;23.65;70.48
68948;BME280;55996;49.546;7.400;2022-07-22T06:06:54;99015.72;;;23.52;69.12
68948;BME280;55996;49.546;7.400;2022-07-22T06:09:19;99020.34;;;23.39;70.34
68948;BME280;55996;49.546;7.400;2022-07-22T06:11:45;99013.31;;;23.37;69.28
68948;BME280;55996;49.546;7.400;2022-07-22T06:14:11;99019.28;;;23.74;67.89
68948;BME280;55996;49.546;7.400;2022-07-22T06:16:36;99017.41;;;23.97;66.94
68948;BME280;55996;49.546;7.400;2022-07-22T06:19:02;99015.84;;;23.94;66.53
68948;BME280;55996;49.546;7.400;2022-07-22T06:21:28;99020.97;;;23.75;67.44
68948;BME280;55996;49.546;7.400;2022-07-22T06:23:53;99011.22;;;23.85;67.18
68948;BME280;55996;49.546;7.400;2022-07-22T06:26:19;99005.28;;;23.93;66.55
68948;BME280;55996;49.546;7.400;2022-07-22T06:28:44;99004.06;;;23.97;66.68
68948;BME280;55996;49.546;7.400;2022-07-22T06:31:10;99012.75;;;24.10;66.47
68948;BME280;55996;49.546;7.400;2022-07-22T06:33:35;99012.16;;;24.07;65.78
68948;BME280;55996;49.546;7.400;2022-07-22T06:36:01;99011.81;;;24.21;64.31
68948;BME280;55996;49.546;7.400;2022-07-22T06:38:27;99005.66;;;23.88;65.62
68948;BME280;55996;49.546;7.400;2022-07-22T06:40:52;99007.84;;;23.83;66.36
68948;BME280;55996;49.546;7.400;2022-07-22T06:43:18;99009.72;;;23.71;68.21
68948;BME280;55996;49.546;7.400;2022-07-22T06:45:43;99004.69;;;23.45;67.84
68948;BME280;55996;49.546;7.400;2022-07-22T06:48:08;99004.97;;;23.19;68.53
68948;BME280;55996;49.546;7.400;2022-07-22T06:50:34;99006.94;;;22.95;70.77
68948;BME280;55996;49.546;7.400;2022-07-22T06:52:59;99007.16;;;22.92;70.41
68948;BME280;55996;49.546;7.400;2022-07-22T06:55:25;99011.28;;;22.62;72.14
68948;BME280;55996;49.546;7.400;2022-07-22T06:57:50;99009.91;;;22.45;72.66
68948;BME280;55996;49.546;7.400;2022-07-22T07:00:16;99003.00;;;22.42;73.36
68948;BME280;55996;49.546;7.400;2022-07-22T07:02:42;99000.16;;;22.21;73.91
68948;BME280;55996;49.546;7.400;2022-07-22T07:05:08;98997.03;;;21.91;76.12
68948;BME280;55996;49.546;7.400;2022-07-22T07:07:34;99004.19;;;21.67;77.47
68948;BME280;55996;49.546;7.400;2022-07-22T07:10:00;99001.25;;;21.58;78.35
68948;BME280;55996;49.546;7.400;2022-07-22T07:12:25;99011.38;;;21.40;79.78
68948;BME280;55996;49.546;7.400;2022-07-22T07:14:51;98996.56;;;21.62;80.52
68948;BME280;55996;49.546;7.400;2022-07-22T07:17:16;98992.72;;;21.53;79.89
68948;BME280;55996;49.546;7.400;2022-07-22T07:19:42;98999.97;;;21.51;78.27
68948;BME280;55996;49.546;7.400;2022-07-22T07:22:07;98986.88;;;21.48;79.73
68948;BME280;55996;49.546;7.400;2022-07-22T07:24:32;98981.03;;;21.56;78.77
68948;BME280;55996;49.546;7.400;2022-07-22T07:26:58;98990.38;;;21.62;78.88
68948;BME280;55996;49.546;7.400;2022-07-22T07:29:23;98978.19;;;21.70;78.63
68948;BME280;55996;49.546;7.400;2022-07-22T07:31:49;98988.16;;;21.80;78.52
68948;BME280;55996;49.546;7.400;2022-07-22T07:34:15;98982.13;;;21.89;76.93
68948;BME280;55996;49.546;7.400;2022-07-22T07:36:40;98992.88;;;21.76;76.54
68948;BME280;55996;49.546;7.400;2022-07-22T07:39:06;98984.00;;;21.75;77.63
68948;BME280;55996;49.546;7.400;2022-07-22T07:41:31;98960.25;;;21.97;76.85
68948;BME280;55996;49.546;7.400;2022-07-22T07:43:57;98965.22;;;22.01;76.42
68948;BME280;55996;49.546;7.400;2022-07-22T07:46:22;98952.09;;;22.22;75.96
68948;BME280;55996;49.546;7.400;2022-07-22T07:48:48;98952.63;;;22.39;74.69
68948;BME280;55996;49.546;7.400;2022-07-22T07:51:14;98968.38;;;22.42;73.97
68948;BME280;55996;49.546;7.400;2022-07-22T07:53:39;98963.78;;;22.44;74.19
68948;BME280;55996;49.546;7.400;2022-07-22T07:56:05;98963.28;;;22.39;73.25
68948;BME280;55996;49.546;7.400;2022-07-22T07:58:31;98962.09;;;22.43;74.97
68948;BME280;55996;49.546;7.400;2022-07-22T08:00:56;98953.13;;;22.44;72.87
68948;BME280;55996;49.546;7.400;2022-07-22T08:03:22;98962.81;;;22.45;72.96
68948;BME280;55996;49.546;7.400;2022-07-22T08:05:47;98969.16;;;22.20;73.00
68948;BME280;55996;49.546;7.400;2022-07-22T08:08:13;98962.03;;;22.20;73.44
68948;BME280;55996;49.546;7.400;2022-07-22T08:10:38;98955.22;;;22.28;73.41
68948;BME280;55996;49.546;7.400;2022-07-22T08:13:05;98957.00;;;22.51;73.74
68948;BME280;55996;49.546;7.400;2022-07-22T08:15:30;98951.19;;;22.69;72.29
68948;BME280;55996;49.546;7.400;2022-07-22T08:17:57;98950.69;;;22.86;70.92
68948;BME280;55996;49.546;7.400;2022-07-22T08:20:24;98941.50;;;22.79;69.46
68948;BME280;55996;49.546;7.400;2022-07-22T08:22:52;98943.16;;;22.92;70.47
68948;BME280;55996;49.546;7.400;2022-07-22T08:25:19;98953.72;;;23.16;69.32
68948;BME280;55996;49.546;7.400;2022-07-22T08:27:44;98956.59;;;23.13;69.26
68948;BME280;55996;49.546;7.400;2022-07-22T08:30:11;98953.72;;;23.16;68.72
68948;BME280;55996;49.546;7.400;2022-07-22T08:32:36;98937.19;;;23.11;67.65
68948;BME280;55996;49.546;7.400;2022-07-22T08:35:03;98954.78;;;23.02;67.15
68948;BME280;55996;49.546;7.400;2022-07-22T08:37:29;98946.88;;;23.12;67.11
68948;BME280;55996;49.546;7.400;2022-07-22T08:39:55;98942.91;;;23.17;66.83
68948;BME280;55996;49.546;7.400;2022-07-22T08:42:23;98926.91;;;23.17;67.13
68948;BME280;55996;49.546;7.400;2022-07-22T08:44:50;98934.78;;;23.19;65.13
68948;BME280;55996;49.546;7.400;2022-07-22T08:47:19;98934.47;;;23.45;66.27
68948;BME280;55996;49.546;7.400;2022-07-22T08:49:45;98927.53;;;23.53;64.00
68948;BME280;55996;49.546;7.400;2022-07-22T08:52:10;98944.91;;;23.69;62.73
68948;BME280;55996;49.546;7.400;2022-07-22T08:54:36;98938.53;;;23.60;63.10
68948;BME280;55996;49.546;7.400;2022-07-22T08:57:01;98936.16;;;23.78;64.38
68948;BME280;55996;49.546;7.400;2022-07-22T08:59:27;98933.94;;;23.83;62.35
68948;BME280;55996;49.546;7.400;2022-07-22T09:02:09;98930.63;;;24.12;63.70
68948;BME280;55996;49.546;7.400;2022-07-22T09:04:57;98930.66;;;24.43;60.99
68948;BME280;55996;49.546;7.400;2022-07-22T09:07:34;98922.53;;;24.55;61.40
68948;BME280;55996;49.546;7.400;2022-07-22T09:10:02;98925.22;;;24.86;59.90
68948;BME280;55996;49.546;7.400;2022-07-22T09:12:28;98921.91;;;25.03;58.20
68948;BME280;55996;49.546;7.400;2022-07-22T09:14:56;98920.00;;;25.44;57.41
68948;BME280;55996;49.546;7.400;2022-07-22T09:17:34;98927.84;;;26.15;56.12
68948;BME280;55996;49.546;7.400;2022-07-22T09:20:03;98920.94;;;26.60;53.36
68948;BME280;55996;49.546;7.400;2022-07-22T09:25:21;98924.19;;;28.44;48.30
68948;BME280;55996;49.546;7.400;2022-07-22T09:27:48;98909.78;;;29.55;45.11
68948;BME280;55996;49.546;7.400;2022-07-22T09:30:16;98910.41;;;30.23;42.79
68948;BME280;55996;49.546;7.400;2022-07-22T09:32:43;98897.63;;;30.09;42.36
68948;BME280;55996;49.546;7.400;2022-07-22T09:35:09;98900.06;;;30.91;39.52
68948;BME280;55996;49.546;7.400;2022-07-22T09:37:37;98894.25;;;31.58;38.42
68948;BME280;55996;49.546;7.400;2022-07-22T09:40:16;98881.25;;;31.99;37.12
68948;BME280;55996;49.546;7.400;2022-07-22T09:43:12;98880.88;;;32.92;36.34
68948;BME280;55996;49.546;7.400;2022-07-22T09:48:13;98871.41;;;33.46;35.13
68948;BME280;55996;49.546;7.400;2022-07-22T09:50:39;98857.25;;;33.73;35.45
68948;BME280;55996;49.546;7.400;2022-07-22T09:53:04;98860.75;;;33.67;34.33
68948;BME280;55996;49.546;7.400;2022-07-22T09:55:30;98858.13;;;33.30;34.66
68948;BME280;55996;49.546;7.400;2022-07-22T09:57:57;98856.91;;;33.54;33.89
68948;BME280;55996;49.546;7.400;2022-07-22T10:00:27;98848.94;;;34.03;34.55
68948;BME280;55996;49.546;7.400;2022-07-22T10:02:56;98848.44;;;34.69;32.85
68948;BME280;55996;49.546;7.400;2022-07-22T10:05:25;98834.38;;;35.21;32.02
68948;BME280;55996;49.546;7.400;2022-07-22T10:07:51;98845.94;;;34.61;32.44
68948;BME280;55996;49.546;7.400;2022-07-22T10:10:26;98845.06;;;34.61;32.38
68948;BME280;55996;49.546;7.400;2022-07-22T10:12:54;98833.22;;;34.75;32.48
68948;BME280;55996;49.546;7.400;2022-07-22T10:15:21;98831.00;;;35.05;31.53
68948;BME280;55996;49.546;7.400;2022-07-22T10:17:49;98834.34;;;34.87;31.65
68948;BME280;55996;49.546;7.400;2022-07-22T10:20:22;98821.41;;;35.36;31.63
68948;BME280;55996;49.546;7.400;2022-07-22T10:23:01;98817.28;;;35.88;31.84
68948;BME280;55996;49.546;7.400;2022-07-22T10:25:30;98819.28;;;36.19;31.86
68948;BME280;55996;49.546;7.400;2022-07-22T10:27:58;98827.06;;;35.35;31.23
68948;BME280;55996;49.546;7.400;2022-07-22T10:30:37;98822.97;;;34.70;31.33
68948;BME280;55996;49.546;7.400;2022-07-22T10:33:17;98818.31;;;34.16;33.60
68948;BME280;55996;49.546;7.400;2022-07-22T10:38:11;98823.69;;;31.91;37.31
68948;BME280;55996;49.546;7.400;2022-07-22T10:40:47;98820.56;;;31.41;38.98
68948;BME280;55996;49.546;7.400;2022-07-22T10:43:14;98816.19;;;30.93;40.71
68948;BME280;55996;49.546;7.400;2022-07-22T10:45:41;98822.03;;;30.34;40.13
68948;BME280;55996;49.546;7.400;2022-07-22T10:48:11;98814.66;;;29.55;41.41
68948;BME280;55996;49.546;7.400;2022-07-22T10:53:12;98820.69;;;28.56;44.63
68948;BME280;55996;49.546;7.400;2022-07-22T10:55:57;98818.91;;;28.30;45.33
68948;BME280;55996;49.546;7.400;2022-07-22T11:01:05;98799.44;;;27.67;47.18
68948;BME280;55996;49.546;7.400;2022-07-22T11:03:32;98808.72;;;27.37;47.92
68948;BME280;55996;49.546;7.400;2022-07-22T11:08:40;98805.69;;;27.14;48.67
68948;BME280;55996;49.546;7.400;2022-07-22T11:11:06;98801.28;;;27.31;50.88
68948;BME280;55996;49.546;7.400;2022-07-22T11:13:33;98802.31;;;27.48;51.42
68948;BME280;55996;49.546;7.400;2022-07-22T11:16:22;98801.34;;;27.57;48.32
68948;BME280;55996;49.546;7.400;2022-07-22T11:21:19;98781.25;;;27.61;49.49
68948;BME280;55996;49.546;7.400;2022-07-22T11:23:47;98787.28;;;27.63;49.89
68948;BME280;55996;49.546;7.400;2022-07-22T11:26:15;98782.28;;;27.68;50.52
68948;BME280;55996;49.546;7.400;2022-07-22T11:28:42;98777.31;;;27.82;50.83
68948;BME280;55996;49.546;7.400;2022-07-22T11:31:10;98775.50;;;27.82;49.32
68948;BME280;55996;49.546;7.400;2022-07-22T11:33:36;98770.31;;;27.89;51.29
68948;BME280;55996;49.546;7.400;2022-07-22T11:36:03;98758.56;;;27.90;49.75
68948;BME280;55996;49.546;7.400;2022-07-22T11:41:06;98765.91;;;28.14;48.80
68948;BME280;55996;49.546;7.400;2022-07-22T11:43:46;98768.69;;;28.31;50.16
68948;BME280;55996;49.546;7.400;2022-07-22T11:46:13;98748.53;;;28.35;49.83
68948;BME280;55996;49.546;7.400;2022-07-22T11:48:40;98755.97;;;28.49;48.52
68948;BME280;55996;49.546;7.400;2022-07-22T11:51:07;98735.75;;;28.45;49.25
68948;BME280;55996;49.546;7.400;2022-07-22T11:53:36;98750.59;;;28.58;46.77
68948;BME280;55996;49.546;7.400;2022-07-22T11:56:03;98740.34;;;28.53;46.20
68948;BME280;55996;49.546;7.400;2022-07-22T12:01:01;98735.44;;;28.32;45.65
68948;BME280;55996;49.546;7.400;2022-07-22T12:03:27;98741.50;;;28.42;44.50
68948;BME280;55996;49.546;7.400;2022-07-22T12:05:54;98729.53;;;28.28;44.77
68948;BME280;55996;49.546;7.400;2022-07-22T12:08:19;98726.84;;;28.37;48.28
68948;BME280;55996;49.546;7.400;2022-07-22T12:10:45;98723.50;;;28.43;47.36
68948;BME280;55996;49.546;7.400;2022-07-22T12:13:11;98722.31;;;28.45;44.99
68948;BME280;55996;49.546;7.400;2022-07-22T12:15:38;98718.28;;;28.41;46.54
68948;BME280;55996;49.546;7.400;2022-07-22T12:18:24;98707.75;;;28.73;47.35
68948;BME280;55996;49.546;7.400;2022-07-22T12:20:51;98701.72;;;28.87;47.44
68948;BME280;55996;49.546;7.400;2022-07-22T12:23:17;98699.03;;;28.95;46.40
68948;BME280;55996;49.546;7.400;2022-07-22T12:28:15;98709.13;;;28.85;42.85
68948;BME280;55996;49.546;7.400;2022-07-22T12:30:40;98705.44;;;28.94;45.03
68948;BME280;55996;49.546;7.400;2022-07-22T12:33:17;98711.47;;;29.05;44.56
68948;BME280;55996;49.546;7.400;2022-07-22T12:35:43;98704.25;;;28.97;43.67
68948;BME280;55996;49.546;7.400;2022-07-22T12:38:10;98699.38;;;28.92;42.93
68948;BME280;55996;49.546;7.400;2022-07-22T12:40:37;98697.84;;;28.98;45.37
68948;BME280;55996;49.546;7.400;2022-07-22T12:43:08;98696.50;;;29.02;45.34
68948;BME280;55996;49.546;7.400;2022-07-22T12:45:38;98701.41;;;28.90;42.77
68948;BME280;55996;49.546;7.400;2022-07-22T12:51:02;98694.66;;;28.94;44.16
68948;BME280;55996;49.546;7.400;2022-07-22T12:53:24;98683.88;;;28.86;44.17
68948;BME280;55996;49.546;7.400;2022-07-22T12:58:28;98682.34;;;28.59;42.97
68948;BME280;55996;49.546;7.400;2022-07-22T13:00:58;98679.31;;;28.54;44.02
68948;BME280;55996;49.546;7.400;2022-07-22T13:03:24;98691.09;;;28.61;43.81
68948;BME280;55996;49.546;7.400;2022-07-22T13:05:53;98681.31;;;28.51;44.52
68948;BME280;55996;49.546;7.400;2022-07-22T13:08:19;98681.50;;;28.58;44.15
68948;BME280;55996;49.546;7.400;2022-07-22T13:10:45;98669.75;;;28.59;44.83
68948;BME280;55996;49.546;7.400;2022-07-22T13:13:10;98664.00;;;28.62;43.54
68948;BME280;55996;49.546;7.400;2022-07-22T13:15:36;98666.25;;;28.75;45.58
68948;BME280;55996;49.546;7.400;2022-07-22T13:18:02;98653.81;;;28.74;46.56
68948;BME280;55996;49.546;7.400;2022-07-22T13:20:28;98664.06;;;28.71;42.06
68948;BME280;55996;49.546;7.400;2022-07-22T13:22:54;98656.63;;;28.64;42.25
68948;BME280;55996;49.546;7.400;2022-07-22T13:25:19;98652.44;;;28.62;41.83
68948;BME280;55996;49.546;7.400;2022-07-22T13:27:45;98654.94;;;28.55;42.79
68948;BME280;55996;49.546;7.400;2022-07-22T13:30:11;98656.81;;;28.63;42.46